sensor_id;sensor_type;location;lat;lon;timestamp;temperature;humidity
70695;DHT22;58269;52.246;21.104;2022-07-29T00:00:45;17.86;56.98
70695;DHT22;58269;52.246;21.104;2022-07-29T00:02:46;17.83;57.03
70695;DHT22;58269;52.246;21.104;2022-07-29T00:04:47;17.79;57.05
70695;DHT22;58269;52.246;21.104;2022-07-29T00:06:48;17.79;57.06
70695;DHT22;58269;52.246;21.104;2022-07-29T00:08:49;17.77;57.25
70695;DHT22;58269;52.246;21.104;2022-07-29T00:10:50;17.74;57.27
70695;DHT22;58269;52.246;21.104;2022-07-29T00:12:51;17.72;57.36
70695;DHT22;58269;52.246;21.104;2022-07-29T00:14:54;17.72;57.45
70695;DHT22;58269;52.246;21.104;2022-07-29T00:16:55;17.66;57.42
70695;DHT22;58269;52.246;21.104;2022-07-29T00:18:56;17.66;57.59
70695;DHT22;58269;52.246;21.104;2022-07-29T00:20:57;17.62;57.53
70695;DHT22;58269;52.246;21.104;2022-07-29T00:22:58;17.60;57.63
70695;DHT22;58269;52.246;21.104;2022-07-29T00:24:59;17.57;57.66
70695;DHT22;58269;52.246;21.104;2022-07-29T00:27:00;17.56;57.75
70695;DHT22;58269;52.246;21.104;2022-07-29T00:29:03;17.54;57.76
70695;DHT22;58269;52.246;21.104;2022-07-29T00:31:04;17.53;57.84
70695;DHT22;58269;52.246;21.104;2022-07-29T00:33:05;17.54;57.87
70695;DHT22;58269;52.246;21.104;2022-07-29T00:35:06;17.53;57.97
70695;DHT22;58269;52.246;21.104;2022-07-29T00:37:26;17.50;58.08
70695;DHT22;58269;52.246;21.104;2022-07-29T00:39:27;17.48;58.13
70695;DHT22;58269;52.246;21.104;2022-07-29T00:41:28;17.45;58.13
70695;DHT22;58269;52.246;21.104;2022-07-29T00:43:30;17.42;58.36
70695;DHT22;58269;52.246;21.104;2022-07-29T00:45:31;17.39;58.41
70695;DHT22;58269;52.246;21.104;2022-07-29T00:47:32;17.35;58.42
70695;DHT22;58269;52.246;21.104;2022-07-29T00:49:34;17.32;58.49
70695;DHT22;58269;52.246;21.104;2022-07-29T00:51:36;17.32;58.60
70695;DHT22;58269;52.246;21.104;2022-07-29T00:53:37;17.29;58.61
70695;DHT22;58269;52.246;21.104;2022-07-29T00:55:38;17.26;58.79
70695;DHT22;58269;52.246;21.104;2022-07-29T00:57:40;17.29;58.83
70695;DHT22;58269;52.246;21.104;2022-07-29T00:59:41;17.19;58.82
70695;DHT22;58269;52.246;21.104;2022-07-29T01:01:42;17.19;58.93
70695;DHT22;58269;52.246;21.104;2022-07-29T01:03:43;17.19;58.97
70695;DHT22;58269;52.246;21.104;2022-07-29T01:05:45;17.16;59.14
70695;DHT22;58269;52.246;21.104;2022-07-29T01:07:49;17.16;59.33
70695;DHT22;58269;52.246;21.104;2022-07-29T01:09:51;17.14;59.30
70695;DHT22;58269;52.246;21.104;2022-07-29T01:11:52;17.11;59.41
70695;DHT22;58269;52.246;21.104;2022-07-29T01:13:54;17.12;59.31
70695;DHT22;58269;52.246;21.104;2022-07-29T01:15:59;17.09;59.36
70695;DHT22;58269;52.246;21.104;2022-07-29T01:18:14;17.07;59.43
70695;DHT22;58269;52.246;21.104;2022-07-29T01:27:44;16.99;59.65
70695;DHT22;58269;52.246;21.104;2022-07-29T01:29:49;16.98;59.68
70695;DHT22;58269;52.246;21.104;2022-07-29T01:32:02;16.98;59.78
70695;DHT22;58269;52.246;21.104;2022-07-29T01:34:06;16.95;59.76
70695;DHT22;58269;52.246;21.104;2022-07-29T01:36:14;16.95;59.84
70695;DHT22;58269;52.246;21.104;2022-07-29T01:38:19;16.92;59.94
70695;DHT22;58269;52.246;21.104;2022-07-29T01:40:36;16.92;59.98
70695;DHT22;58269;52.246;21.104;2022-07-29T01:42:42;16.92;60.01
70695;DHT22;58269;52.246;21.104;2022-07-29T01:45:02;16.87;60.01
70695;DHT22;58269;52.246;21.104;2022-07-29T01:47:10;16.85;60.17
70695;DHT22;58269;52.246;21.104;2022-07-29T01:49:13;16.84;60.13
70695;DHT22;58269;52.246;21.104;2022-07-29T01:51:21;16.81;60.19
70695;DHT22;58269;52.246;21.104;2022-07-29T01:53:27;16.77;60.20
70695;DHT22;58269;52.246;21.104;2022-07-29T01:55:29;16.77;60.29
70695;DHT22;58269;52.246;21.104;2022-07-29T01:57:31;16.75;60.36
70695;DHT22;58269;52.246;21.104;2022-07-29T01:59:34;16.77;60.39
70695;DHT22;58269;52.246;21.104;2022-07-29T02:01:37;16.74;60.40
70695;DHT22;58269;52.246;21.104;2022-07-29T02:03:41;16.71;60.50
70695;DHT22;58269;52.246;21.104;2022-07-29T02:05:43;16.72;60.53
70695;DHT22;58269;52.246;21.104;2022-07-29T02:07:46;16.71;60.60
70695;DHT22;58269;52.246;21.104;2022-07-29T02:09:49;16.70;60.67
70695;DHT22;58269;52.246;21.104;2022-07-29T02:11:52;16.68;60.69
70695;DHT22;58269;52.246;21.104;2022-07-29T02:13:54;16.66;60.75
70695;DHT22;58269;52.246;21.104;2022-07-29T02:15:57;16.63;60.79
70695;DHT22;58269;52.246;21.104;2022-07-29T02:18:02;16.63;60.88
70695;DHT22;58269;52.246;21.104;2022-07-29T02:20:05;16.57;60.89
70695;DHT22;58269;52.246;21.104;2022-07-29T02:22:07;16.56;60.99
70695;DHT22;58269;52.246;21.104;2022-07-29T02:24:09;16.51;61.07
70695;DHT22;58269;52.246;21.104;2022-07-29T02:26:12;16.53;61.14
70695;DHT22;58269;52.246;21.104;2022-07-29T02:28:13;16.51;61.15
70695;DHT22;58269;52.246;21.104;2022-07-29T02:30:15;16.47;61.18
70695;DHT22;58269;52.246;21.104;2022-07-29T02:32:16;16.47;61.24
70695;DHT22;58269;52.246;21.104;2022-07-29T02:34:19;16.44;61.38
70695;DHT22;58269;52.246;21.104;2022-07-29T02:36:22;16.44;61.37
70695;DHT22;58269;52.246;21.104;2022-07-29T02:38:24;16.40;61.42
70695;DHT22;58269;52.246;21.104;2022-07-29T02:40:44;16.37;61.62
70695;DHT22;58269;52.246;21.104;2022-07-29T02:42:46;16.36;61.62
70695;DHT22;58269;52.246;21.104;2022-07-29T02:44:47;16.33;61.66
70695;DHT22;58269;52.246;21.104;2022-07-29T02:47:36;16.30;62.16
70695;DHT22;58269;52.246;21.104;2022-07-29T02:49:04;16.25;61.85
70695;DHT22;58269;52.246;21.104;2022-07-29T02:51:07;16.20;61.91
70695;DHT22;58269;52.246;21.104;2022-07-29T02:53:17;16.19;62.02
70695;DHT22;58269;52.246;21.104;2022-07-29T02:55:31;16.19;62.05
70695;DHT22;58269;52.246;21.104;2022-07-29T02:57:47;16.30;63.93
70695;DHT22;58269;52.246;21.104;2022-07-29T02:59:51;17.56;70.63
70695;DHT22;58269;52.246;21.104;2022-07-29T03:01:54;18.51;69.21
70695;DHT22;58269;52.246;21.104;2022-07-29T03:03:56;19.17;65.29
70695;DHT22;58269;52.246;21.104;2022-07-29T03:05:58;19.71;66.03
70695;DHT22;58269;52.246;21.104;2022-07-29T03:08:03;20.19;62.63
70695;DHT22;58269;52.246;21.104;2022-07-29T03:10:06;20.58;60.64
70695;DHT22;58269;52.246;21.104;2022-07-29T03:12:09;20.74;57.81
70695;DHT22;58269;52.246;21.104;2022-07-29T03:14:11;20.26;55.90
70695;DHT22;58269;52.246;21.104;2022-07-29T03:16:13;19.62;54.79
70695;DHT22;58269;52.246;21.104;2022-07-29T03:18:15;19.15;54.40
70695;DHT22;58269;52.246;21.104;2022-07-29T03:20:17;18.78;54.33
70695;DHT22;58269;52.246;21.104;2022-07-29T03:22:18;18.44;55.02
70695;DHT22;58269;52.246;21.104;2022-07-29T03:24:34;18.20;54.95
70695;DHT22;58269;52.246;21.104;2022-07-29T03:26:35;17.94;55.12
70695;DHT22;58269;52.246;21.104;2022-07-29T03:28:36;17.76;55.30
70695;DHT22;58269;52.246;21.104;2022-07-29T03:30:37;17.60;55.78
70695;DHT22;58269;52.246;21.104;2022-07-29T03:32:39;17.45;56.03
70695;DHT22;58269;52.246;21.104;2022-07-29T03:34:40;17.30;56.47
70695;DHT22;58269;52.246;21.104;2022-07-29T03:36:41;17.19;56.84
70695;DHT22;58269;52.246;21.104;2022-07-29T03:38:42;17.05;57.12
70695;DHT22;58269;52.246;21.104;2022-07-29T03:40:48;16.94;57.71
70695;DHT22;58269;52.246;21.104;2022-07-29T03:42:49;16.85;59.13
70695;DHT22;58269;52.246;21.104;2022-07-29T03:44:52;16.72;58.49
70695;DHT22;58269;52.246;21.104;2022-07-29T03:46:55;16.66;59.03
70695;DHT22;58269;52.246;21.104;2022-07-29T03:49:00;16.57;59.26
70695;DHT22;58269;52.246;21.104;2022-07-29T03:51:02;16.48;59.48
70695;DHT22;58269;52.246;21.104;2022-07-29T03:53:03;16.43;59.66
70695;DHT22;58269;52.246;21.104;2022-07-29T03:55:05;16.39;59.96
70695;DHT22;58269;52.246;21.104;2022-07-29T03:57:06;16.33;60.29
70695;DHT22;58269;52.246;21.104;2022-07-29T03:59:07;16.26;60.25
70695;DHT22;58269;52.246;21.104;2022-07-29T04:01:09;16.23;60.63
70695;DHT22;58269;52.246;21.104;2022-07-29T04:03:10;16.20;61.04
70695;DHT22;58269;52.246;21.104;2022-07-29T04:05:12;16.16;61.07
70695;DHT22;58269;52.246;21.104;2022-07-29T04:07:14;16.12;61.16
70695;DHT22;58269;52.246;21.104;2022-07-29T04:09:15;16.13;61.97
70695;DHT22;58269;52.246;21.104;2022-07-29T04:11:16;16.09;61.59
70695;DHT22;58269;52.246;21.104;2022-07-29T04:13:17;16.48;66.15
70695;DHT22;58269;52.246;21.104;2022-07-29T04:15:19;17.73;70.50
70695;DHT22;58269;52.246;21.104;2022-07-29T04:17:20;18.73;70.79
70695;DHT22;58269;52.246;21.104;2022-07-29T04:19:21;19.41;67.40
70695;DHT22;58269;52.246;21.104;2022-07-29T04:21:23;19.88;66.27
70695;DHT22;58269;52.246;21.104;2022-07-29T04:23:24;20.26;64.72
70695;DHT22;58269;52.246;21.104;2022-07-29T04:25:25;20.61;62.81
70695;DHT22;58269;52.246;21.104;2022-07-29T04:27:26;20.94;63.00
70695;DHT22;58269;52.246;21.104;2022-07-29T04:29:27;21.05;57.93
70695;DHT22;58269;52.246;21.104;2022-07-29T04:31:28;20.51;55.28
70695;DHT22;58269;52.246;21.104;2022-07-29T04:33:29;19.93;54.16
70695;DHT22;58269;52.246;21.104;2022-07-29T04:35:33;19.45;53.88
70695;DHT22;58269;52.246;21.104;2022-07-29T04:37:33;19.10;54.17
70695;DHT22;58269;52.246;21.104;2022-07-29T04:39:34;18.82;54.24
70695;DHT22;58269;52.246;21.104;2022-07-29T04:41:35;18.55;54.69
70695;DHT22;58269;52.246;21.104;2022-07-29T04:43:37;18.35;55.24
70695;DHT22;58269;52.246;21.104;2022-07-29T04:45:38;18.17;55.52
70695;DHT22;58269;52.246;21.104;2022-07-29T04:47:39;18.04;55.78
70695;DHT22;58269;52.246;21.104;2022-07-29T04:49:40;17.91;56.00
70695;DHT22;58269;52.246;21.104;2022-07-29T04:51:41;17.79;56.86
70695;DHT22;58269;52.246;21.104;2022-07-29T04:53:42;17.69;56.95
70695;DHT22;58269;52.246;21.104;2022-07-29T04:55:43;17.60;57.62
70695;DHT22;58269;52.246;21.104;2022-07-29T04:57:45;17.50;57.79
70695;DHT22;58269;52.246;21.104;2022-07-29T04:59:46;17.40;58.73
70695;DHT22;58269;52.246;21.104;2022-07-29T05:01:47;17.36;58.52
70695;DHT22;58269;52.246;21.104;2022-07-29T05:03:48;17.29;59.44
70695;DHT22;58269;52.246;21.104;2022-07-29T05:05:49;17.25;59.34
70695;DHT22;58269;52.246;21.104;2022-07-29T05:07:50;17.19;60.41
70695;DHT22;58269;52.246;21.104;2022-07-29T05:09:51;17.16;60.21
70695;DHT22;58269;52.246;21.104;2022-07-29T05:11:53;17.15;60.27
70695;DHT22;58269;52.246;21.104;2022-07-29T05:13:54;17.11;60.12
70695;DHT22;58269;52.246;21.104;2022-07-29T05:15:55;17.11;60.74
70695;DHT22;58269;52.246;21.104;2022-07-29T05:17:59;17.11;60.74
70695;DHT22;58269;52.246;21.104;2022-07-29T05:20:00;17.08;60.87
70695;DHT22;58269;52.246;21.104;2022-07-29T05:22:01;17.14;60.92
70695;DHT22;58269;52.246;21.104;2022-07-29T05:24:03;17.09;60.86
70695;DHT22;58269;52.246;21.104;2022-07-29T05:26:04;17.14;61.19
70695;DHT22;58269;52.246;21.104;2022-07-29T05:28:05;17.15;61.47
70695;DHT22;58269;52.246;21.104;2022-07-29T05:30:07;17.21;61.64
70695;DHT22;58269;52.246;21.104;2022-07-29T05:32:08;17.23;61.80
70695;DHT22;58269;52.246;21.104;2022-07-29T05:34:09;17.23;61.85
70695;DHT22;58269;52.246;21.104;2022-07-29T05:36:10;17.29;62.05
70695;DHT22;58269;52.246;21.104;2022-07-29T05:38:12;17.29;62.47
70695;DHT22;58269;52.246;21.104;2022-07-29T05:40:13;17.32;62.55
70695;DHT22;58269;52.246;21.104;2022-07-29T05:42:14;17.98;68.08
70695;DHT22;58269;52.246;21.104;2022-07-29T05:44:15;19.31;70.86
70695;DHT22;58269;52.246;21.104;2022-07-29T05:46:16;20.27;70.79
70695;DHT22;58269;52.246;21.104;2022-07-29T05:48:17;20.94;71.00
70695;DHT22;58269;52.246;21.104;2022-07-29T05:50:18;21.46;69.19
70695;DHT22;58269;52.246;21.104;2022-07-29T05:52:20;21.90;66.99
70695;DHT22;58269;52.246;21.104;2022-07-29T05:54:21;22.27;65.15
70695;DHT22;58269;52.246;21.104;2022-07-29T05:56:22;22.59;63.09
70695;DHT22;58269;52.246;21.104;2022-07-29T05:58:24;22.92;62.53
70695;DHT22;58269;52.246;21.104;2022-07-29T06:00:25;23.20;61.65
70695;DHT22;58269;52.246;21.104;2022-07-29T06:02:26;23.44;60.94
70695;DHT22;58269;52.246;21.104;2022-07-29T06:04:27;23.67;59.55
70695;DHT22;58269;52.246;21.104;2022-07-29T06:06:27;23.62;56.28
70695;DHT22;58269;52.246;21.104;2022-07-29T06:08:28;23.06;52.80
70695;DHT22;58269;52.246;21.104;2022-07-29T06:10:29;22.45;51.81
70695;DHT22;58269;52.246;21.104;2022-07-29T06:12:30;22.00;51.54
70695;DHT22;58269;52.246;21.104;2022-07-29T06:14:31;21.62;51.67
70695;DHT22;58269;52.246;21.104;2022-07-29T06:16:33;21.32;52.16
70695;DHT22;58269;52.246;21.104;2022-07-29T06:18:34;21.06;51.98
70695;DHT22;58269;52.246;21.104;2022-07-29T06:20:36;20.88;52.41
70695;DHT22;58269;52.246;21.104;2022-07-29T06:22:37;20.70;52.82
70695;DHT22;58269;52.246;21.104;2022-07-29T06:24:38;20.56;52.93
70695;DHT22;58269;52.246;21.104;2022-07-29T06:26:41;20.42;54.04
70695;DHT22;58269;52.246;21.104;2022-07-29T06:28:42;20.27;53.79
70695;DHT22;58269;52.246;21.104;2022-07-29T06:30:43;20.16;54.12
70695;DHT22;58269;52.246;21.104;2022-07-29T06:32:44;20.05;53.86
70695;DHT22;58269;52.246;21.104;2022-07-29T06:34:45;19.99;55.36
70695;DHT22;58269;52.246;21.104;2022-07-29T06:36:46;19.91;55.04
70695;DHT22;58269;52.246;21.104;2022-07-29T06:38:47;19.85;55.42
70695;DHT22;58269;52.246;21.104;2022-07-29T06:40:48;19.81;55.84
70695;DHT22;58269;52.246;21.104;2022-07-29T06:43:02;19.74;56.56
70695;DHT22;58269;52.246;21.104;2022-07-29T06:45:03;19.69;56.38
70695;DHT22;58269;52.246;21.104;2022-07-29T06:47:04;19.68;56.27
70695;DHT22;58269;52.246;21.104;2022-07-29T06:49:05;19.65;56.71
70695;DHT22;58269;52.246;21.104;2022-07-29T06:51:08;19.65;56.98
70695;DHT22;58269;52.246;21.104;2022-07-29T06:53:09;19.65;57.85
70695;DHT22;58269;52.246;21.104;2022-07-29T06:55:10;19.64;57.43
70695;DHT22;58269;52.246;21.104;2022-07-29T06:57:11;19.65;57.54
70695;DHT22;58269;52.246;21.104;2022-07-29T06:59:12;19.66;57.69
70695;DHT22;58269;52.246;21.104;2022-07-29T07:01:13;19.68;58.17
70695;DHT22;58269;52.246;21.104;2022-07-29T07:03:16;19.74;58.34
70695;DHT22;58269;52.246;21.104;2022-07-29T07:05:18;19.75;58.34
70695;DHT22;58269;52.246;21.104;2022-07-29T07:07:19;19.76;58.54
70695;DHT22;58269;52.246;21.104;2022-07-29T07:09:20;19.79;58.53
70695;DHT22;58269;52.246;21.104;2022-07-29T07:11:21;19.82;58.41
70695;DHT22;58269;52.246;21.104;2022-07-29T07:13:23;19.83;58.51
70695;DHT22;58269;52.246;21.104;2022-07-29T07:15:24;19.89;58.77
70695;DHT22;58269;52.246;21.104;2022-07-29T07:17:25;19.93;58.78
70695;DHT22;58269;52.246;21.104;2022-07-29T07:19:26;20.01;58.63
70695;DHT22;58269;52.246;21.104;2022-07-29T07:21:27;20.08;58.63
70695;DHT22;58269;52.246;21.104;2022-07-29T07:23:28;20.12;58.70
70695;DHT22;58269;52.246;21.104;2022-07-29T07:25:30;20.17;58.84
70695;DHT22;58269;52.246;21.104;2022-07-29T07:27:31;20.23;58.90
70695;DHT22;58269;52.246;21.104;2022-07-29T07:29:32;20.29;58.80
70695;DHT22;58269;52.246;21.104;2022-07-29T07:31:33;20.30;58.77
70695;DHT22;58269;52.246;21.104;2022-07-29T07:33:34;20.39;59.00
70695;DHT22;58269;52.246;21.104;2022-07-29T07:35:35;20.42;58.85
70695;DHT22;58269;52.246;21.104;2022-07-29T07:37:37;20.48;58.75
70695;DHT22;58269;52.246;21.104;2022-07-29T07:39:39;20.53;58.57
70695;DHT22;58269;52.246;21.104;2022-07-29T07:41:40;20.63;58.96
70695;DHT22;58269;52.246;21.104;2022-07-29T07:43:40;20.68;58.86
70695;DHT22;58269;52.246;21.104;2022-07-29T07:45:41;20.77;58.75
70695;DHT22;58269;52.246;21.104;2022-07-29T07:47:42;20.83;59.24
70695;DHT22;58269;52.246;21.104;2022-07-29T07:49:43;20.90;59.05
70695;DHT22;58269;52.246;21.104;2022-07-29T07:51:44;20.95;58.85
70695;DHT22;58269;52.246;21.104;2022-07-29T07:53:45;21.01;58.79
70695;DHT22;58269;52.246;21.104;2022-07-29T07:55:48;21.04;58.49
70695;DHT22;58269;52.246;21.104;2022-07-29T07:57:49;21.09;59.16
70695;DHT22;58269;52.246;21.104;2022-07-29T07:59:50;21.22;59.03
70695;DHT22;58269;52.246;21.104;2022-07-29T08:01:51;21.29;59.04
70695;DHT22;58269;52.246;21.104;2022-07-29T08:03:52;21.36;58.95
70695;DHT22;58269;52.246;21.104;2022-07-29T08:05:53;21.45;58.57
70695;DHT22;58269;52.246;21.104;2022-07-29T08:07:54;21.53;58.51
70695;DHT22;58269;52.246;21.104;2022-07-29T08:09:55;21.57;58.50
70695;DHT22;58269;52.246;21.104;2022-07-29T08:11:57;21.62;58.51
70695;DHT22;58269;52.246;21.104;2022-07-29T08:13:59;21.67;58.49
70695;DHT22;58269;52.246;21.104;2022-07-29T08:16:02;21.69;58.37
70695;DHT22;58269;52.246;21.104;2022-07-29T08:18:05;21.73;58.41
70695;DHT22;58269;52.246;21.104;2022-07-29T08:20:06;21.74;58.34
70695;DHT22;58269;52.246;21.104;2022-07-29T08:22:07;21.78;58.27
70695;DHT22;58269;52.246;21.104;2022-07-29T08:24:08;21.77;58.18
70695;DHT22;58269;52.246;21.104;2022-07-29T08:26:28;21.80;58.07
70695;DHT22;58269;52.246;21.104;2022-07-29T08:28:29;21.87;57.91
70695;DHT22;58269;52.246;21.104;2022-07-29T08:30:30;21.87;58.29
70695;DHT22;58269;52.246;21.104;2022-07-29T08:32:32;21.95;57.78
70695;DHT22;58269;52.246;21.104;2022-07-29T08:34:33;21.95;57.76
70695;DHT22;58269;52.246;21.104;2022-07-29T08:36:35;22.03;57.70
70695;DHT22;58269;52.246;21.104;2022-07-29T08:38:36;22.06;57.59
70695;DHT22;58269;52.246;21.104;2022-07-29T08:40:37;22.11;57.61
70695;DHT22;58269;52.246;21.104;2022-07-29T08:42:38;22.21;57.63
70695;DHT22;58269;52.246;21.104;2022-07-29T08:44:39;22.29;57.55
70695;DHT22;58269;52.246;21.104;2022-07-29T08:46:40;22.38;57.45
70695;DHT22;58269;52.246;21.104;2022-07-29T08:48:41;22.44;57.44
70695;DHT22;58269;52.246;21.104;2022-07-29T08:50:43;22.51;57.37
70695;DHT22;58269;52.246;21.104;2022-07-29T08:52:44;22.58;57.38
70695;DHT22;58269;52.246;21.104;2022-07-29T08:54:45;22.62;57.39
70695;DHT22;58269;52.246;21.104;2022-07-29T08:56:48;22.61;57.27
70695;DHT22;58269;52.246;21.104;2022-07-29T08:58:50;22.64;57.19
70695;DHT22;58269;52.246;21.104;2022-07-29T09:00:54;22.67;57.06
70695;DHT22;58269;52.246;21.104;2022-07-29T09:02:57;22.68;56.99
70695;DHT22;58269;52.246;21.104;2022-07-29T09:04:59;22.71;56.86
70695;DHT22;58269;52.246;21.104;2022-07-29T09:07:02;22.75;56.81
70695;DHT22;58269;52.246;21.104;2022-07-29T09:09:04;22.75;56.73
70695;DHT22;58269;52.246;21.104;2022-07-29T09:11:06;22.78;56.63
70695;DHT22;58269;52.246;21.104;2022-07-29T09:13:08;22.80;56.54
70695;DHT22;58269;52.246;21.104;2022-07-29T09:15:09;22.86;56.44
70695;DHT22;58269;52.246;21.104;2022-07-29T09:17:10;22.93;56.46
70695;DHT22;58269;52.246;21.104;2022-07-29T09:19:26;23.00;56.61
70695;DHT22;58269;52.246;21.104;2022-07-29T09:21:27;23.09;56.31
70695;DHT22;58269;52.246;21.104;2022-07-29T09:26:06;23.23;56.05
70695;DHT22;58269;52.246;21.104;2022-07-29T09:28:08;23.32;55.91
70695;DHT22;58269;52.246;21.104;2022-07-29T09:30:13;23.37;55.79
70695;DHT22;58269;52.246;21.104;2022-07-29T09:32:13;23.43;55.61
70695;DHT22;58269;52.246;21.104;2022-07-29T09:34:16;23.49;55.48
70695;DHT22;58269;52.246;21.104;2022-07-29T09:36:17;23.49;55.36
70695;DHT22;58269;52.246;21.104;2022-07-29T09:38:18;23.51;55.30
70695;DHT22;58269;52.246;21.104;2022-07-29T09:40:25;23.47;55.22
70695;DHT22;58269;52.246;21.104;2022-07-29T09:42:28;23.47;55.15
70695;DHT22;58269;52.246;21.104;2022-07-29T09:44:48;23.50;55.14
70695;DHT22;58269;52.246;21.104;2022-07-29T09:47:01;23.51;54.99
70695;DHT22;58269;52.246;21.104;2022-07-29T09:49:11;23.54;54.87
70695;DHT22;58269;52.246;21.104;2022-07-29T09:51:19;23.58;54.76
70695;DHT22;58269;52.246;21.104;2022-07-29T09:53:31;23.64;54.67
70695;DHT22;58269;52.246;21.104;2022-07-29T09:55:47;23.76;54.62
70695;DHT22;58269;52.246;21.104;2022-07-29T09:57:48;23.81;54.37
70695;DHT22;58269;52.246;21.104;2022-07-29T10:00:08;23.88;54.32
70695;DHT22;58269;52.246;21.104;2022-07-29T10:02:15;23.97;54.16
70695;DHT22;58269;52.246;21.104;2022-07-29T10:04:16;24.02;54.08
70695;DHT22;58269;52.246;21.104;2022-07-29T10:06:18;24.02;53.90
70695;DHT22;58269;52.246;21.104;2022-07-29T10:08:24;24.05;53.84
70695;DHT22;58269;52.246;21.104;2022-07-29T10:10:26;24.08;53.78
70695;DHT22;58269;52.246;21.104;2022-07-29T10:12:28;24.05;53.66
70695;DHT22;58269;52.246;21.104;2022-07-29T10:14:31;24.05;53.59
70695;DHT22;58269;52.246;21.104;2022-07-29T10:16:33;24.07;53.53
70695;DHT22;58269;52.246;21.104;2022-07-29T10:18:35;24.04;53.52
70695;DHT22;58269;52.246;21.104;2022-07-29T10:20:38;24.04;53.34
70695;DHT22;58269;52.246;21.104;2022-07-29T10:22:40;24.02;53.28
70695;DHT22;58269;52.246;21.104;2022-07-29T10:24:41;24.01;53.22
70695;DHT22;58269;52.246;21.104;2022-07-29T10:26:42;24.01;53.25
70695;DHT22;58269;52.246;21.104;2022-07-29T10:28:46;23.99;53.26
70695;DHT22;58269;52.246;21.104;2022-07-29T10:30:48;24.01;53.15
70695;DHT22;58269;52.246;21.104;2022-07-29T10:42:44;24.11;52.61
70695;DHT22;58269;52.246;21.104;2022-07-29T10:44:46;24.15;52.43
70695;DHT22;58269;52.246;21.104;2022-07-29T10:46:47;24.18;52.49
70695;DHT22;58269;52.246;21.104;2022-07-29T10:49:09;24.22;52.42
70695;DHT22;58269;52.246;21.104;2022-07-29T10:51:10;24.26;52.34
70695;DHT22;58269;52.246;21.104;2022-07-29T10:53:12;24.35;52.32
70695;DHT22;58269;52.246;21.104;2022-07-29T10:55:37;24.39;52.25
70695;DHT22;58269;52.246;21.104;2022-07-29T10:57:40;24.45;52.05
70695;DHT22;58269;52.246;21.104;2022-07-29T10:59:44;24.48;51.99
70695;DHT22;58269;52.246;21.104;2022-07-29T11:01:46;24.55;51.80
70695;DHT22;58269;52.246;21.104;2022-07-29T11:03:48;24.58;51.73
70695;DHT22;58269;52.246;21.104;2022-07-29T11:05:53;24.63;51.73
70695;DHT22;58269;52.246;21.104;2022-07-29T11:10:19;24.72;51.56
70695;DHT22;58269;52.246;21.104;2022-07-29T11:14:59;24.74;51.34
70695;DHT22;58269;52.246;21.104;2022-07-29T11:17:04;24.74;51.21
70695;DHT22;58269;52.246;21.104;2022-07-29T11:21:34;24.81;51.09
70695;DHT22;58269;52.246;21.104;2022-07-29T11:23:35;24.79;51.03
70695;DHT22;58269;52.246;21.104;2022-07-29T11:25:37;24.80;51.11
70695;DHT22;58269;52.246;21.104;2022-07-29T11:27:38;24.80;51.04
70695;DHT22;58269;52.246;21.104;2022-07-29T11:29:56;24.80;51.01
70695;DHT22;58269;52.246;21.104;2022-07-29T11:32:10;24.80;50.93
70695;DHT22;58269;52.246;21.104;2022-07-29T11:34:31;24.81;50.90
70695;DHT22;58269;52.246;21.104;2022-07-29T11:36:33;24.81;50.86
70695;DHT22;58269;52.246;21.104;2022-07-29T11:38:34;24.80;50.76
70695;DHT22;58269;52.246;21.104;2022-07-29T11:40:35;24.80;50.67
70695;DHT22;58269;52.246;21.104;2022-07-29T11:42:41;24.81;50.68
70695;DHT22;58269;52.246;21.104;2022-07-29T11:45:03;24.80;50.61
70695;DHT22;58269;52.246;21.104;2022-07-29T11:47:08;24.79;50.52
70695;DHT22;58269;52.246;21.104;2022-07-29T11:49:10;24.80;50.44
70695;DHT22;58269;52.246;21.104;2022-07-29T11:51:11;24.77;50.44
70695;DHT22;58269;52.246;21.104;2022-07-29T11:53:13;24.79;50.45
70695;DHT22;58269;52.246;21.104;2022-07-29T11:55:19;24.80;50.39
70695;DHT22;58269;52.246;21.104;2022-07-29T11:57:20;24.80;50.39
70695;DHT22;58269;52.246;21.104;2022-07-29T11:59:21;24.80;50.38
70695;DHT22;58269;52.246;21.104;2022-07-29T12:01:22;24.84;50.32
70695;DHT22;58269;52.246;21.104;2022-07-29T12:03:27;24.83;50.32
70695;DHT22;58269;52.246;21.104;2022-07-29T12:05:42;24.89;50.28
70695;DHT22;58269;52.246;21.104;2022-07-29T12:07:45;24.90;50.27
70695;DHT22;58269;52.246;21.104;2022-07-29T12:09:50;24.93;50.15
70695;DHT22;58269;52.246;21.104;2022-07-29T12:11:58;24.99;50.08
70695;DHT22;58269;52.246;21.104;2022-07-29T12:13:59;25.00;50.07
70695;DHT22;58269;52.246;21.104;2022-07-29T12:16:00;25.09;50.01
70695;DHT22;58269;52.246;21.104;2022-07-29T12:18:12;25.13;49.97
70695;DHT22;58269;52.246;21.104;2022-07-29T12:20:14;25.18;49.91
70695;DHT22;58269;52.246;21.104;2022-07-29T12:22:34;25.24;49.79
70695;DHT22;58269;52.246;21.104;2022-07-29T12:24:44;25.28;49.66
70695;DHT22;58269;52.246;21.104;2022-07-29T12:26:59;25.30;49.58
70695;DHT22;58269;52.246;21.104;2022-07-29T12:28:58;25.38;49.54
70695;DHT22;58269;52.246;21.104;2022-07-29T12:30:59;25.44;49.49
70695;DHT22;58269;52.246;21.104;2022-07-29T12:33:00;25.48;49.41
70695;DHT22;58269;52.246;21.104;2022-07-29T12:35:15;25.57;49.34
70695;DHT22;58269;52.246;21.104;2022-07-29T12:37:16;25.64;49.24
70695;DHT22;58269;52.246;21.104;2022-07-29T12:39:17;25.68;49.16
70695;DHT22;58269;52.246;21.104;2022-07-29T12:41:18;25.72;49.12
70695;DHT22;58269;52.246;21.104;2022-07-29T12:43:22;25.72;48.99
70695;DHT22;58269;52.246;21.104;2022-07-29T12:45:30;25.72;48.95
70695;DHT22;58269;52.246;21.104;2022-07-29T12:47:32;25.71;48.93
70695;DHT22;58269;52.246;21.104;2022-07-29T12:49:33;25.69;48.84
70695;DHT22;58269;52.246;21.104;2022-07-29T12:51:37;25.66;48.79
70695;DHT22;58269;52.246;21.104;2022-07-29T12:53:38;25.65;48.72
70695;DHT22;58269;52.246;21.104;2022-07-29T12:55:44;25.62;48.65
70695;DHT22;58269;52.246;21.104;2022-07-29T12:57:49;25.60;48.60
70695;DHT22;58269;52.246;21.104;2022-07-29T13:02:21;25.58;48.58
70695;DHT22;58269;52.246;21.104;2022-07-29T13:04:29;25.60;48.49
70695;DHT22;58269;52.246;21.104;2022-07-29T13:06:43;25.61;48.46
70695;DHT22;58269;52.246;21.104;2022-07-29T13:09:20;25.62;48.45
70695;DHT22;58269;52.246;21.104;2022-07-29T13:10:55;25.66;48.36
70695;DHT22;58269;52.246;21.104;2022-07-29T13:13:10;25.68;48.30
70695;DHT22;58269;52.246;21.104;2022-07-29T13:15:15;25.79;48.27